createdAt,value
2023-05-11T00:00:07.251Z,14.60
2023-05-11T00:02:36.467Z,14.60
2023-05-11T00:05:05.779Z,14.50
2023-05-11T00:07:34.439Z,14.50
2023-05-11T00:10:04.802Z,14.40
2023-05-11T00:12:33.441Z,14.40
2023-05-11T00:15:02.368Z,14.30
2023-05-11T00:17:31.137Z,14.20
2023-05-11T00:19:59.779Z,14.30
2023-05-11T00:22:28.320Z,14.20
2023-05-11T00:24:57.080Z,14.30
2023-05-11T00:27:27.044Z,14.30
2023-05-11T00:29:55.746Z,14.40
2023-05-11T00:32:24.510Z,14.40
2023-05-11T00:34:53.225Z,14.40
2023-05-11T00:37:22.012Z,14.40
2023-05-11T00:39:50.841Z,14.50
2023-05-11T00:42:19.345Z,14.50
2023-05-11T00:44:49.747Z,14.50
2023-05-11T00:47:18.469Z,14.50
2023-05-11T00:49:48.070Z,14.50
2023-05-11T00:52:16.960Z,14.40
2023-05-11T00:54:45.971Z,14.40
2023-05-11T00:57:15.219Z,14.40
2023-05-11T00:59:45.036Z,14.20
2023-05-11T01:02:15.360Z,14.20
2023-05-11T01:04:44.488Z,14.20
2023-05-11T01:07:24.730Z,14.20
2023-05-11T01:10:05.163Z,14.30
2023-05-11T01:12:46.197Z,14.20
2023-05-11T01:15:25.085Z,14.20
2023-05-11T01:18:02.772Z,14.20
2023-05-11T01:20:32.281Z,14.20
2023-05-11T01:23:24.783Z,14.20
2023-05-11T01:26:17.892Z,14.20
2023-05-11T01:29:40.359Z,14.30
2023-05-11T01:32:18.123Z,14.20
2023-05-11T01:34:48.747Z,14.30
2023-05-11T01:37:22.694Z,14.30
2023-05-11T01:39:58.126Z,14.30
2023-05-11T01:42:36.443Z,14.30
2023-05-11T01:45:08.856Z,14.30
2023-05-11T01:47:42.838Z,14.40
2023-05-11T01:50:13.083Z,14.40
2023-05-11T01:52:44.396Z,14.30
2023-05-11T01:55:16.910Z,14.30
2023-05-11T01:57:46.849Z,14.20
2023-05-11T02:00:18.695Z,14.20
2023-05-11T02:02:51.185Z,14.20
2023-05-11T02:05:25.017Z,14.20
2023-05-11T02:07:57.334Z,14.20
2023-05-11T02:10:29.299Z,14.20
2023-05-11T02:13:00.506Z,14.10
2023-05-11T02:15:31.722Z,14.10
2023-05-11T02:18:03.197Z,14.10
2023-05-11T02:20:32.831Z,14.10
2023-05-11T02:23:02.433Z,14.00
2023-05-11T02:25:32.904Z,13.90
2023-05-11T02:28:01.754Z,14.00
2023-05-11T02:30:34.042Z,13.90
2023-05-11T02:33:10.669Z,13.90
2023-05-11T02:35:44.782Z,14.00
2023-05-11T02:38:16.597Z,14.00
2023-05-11T02:40:52.664Z,14.00
2023-05-11T02:43:27.096Z,14.00
2023-05-11T02:46:02.354Z,13.90
2023-05-11T02:48:39.857Z,13.90
2023-05-11T02:51:12.599Z,13.90
2023-05-11T02:53:44.220Z,13.90
2023-05-11T02:56:14.490Z,13.90
2023-05-11T02:58:43.336Z,13.80
2023-05-11T03:01:13.543Z,13.80
2023-05-11T03:03:43.862Z,13.70
2023-05-11T03:06:12.672Z,13.80
2023-05-11T03:08:42.813Z,13.70
2023-05-11T03:11:12.784Z,13.70
2023-05-11T03:13:41.650Z,13.80
2023-05-11T03:16:12.749Z,13.80
2023-05-11T03:18:43.804Z,13.80
2023-05-11T03:21:12.636Z,13.80
2023-05-11T03:23:42.998Z,13.80
2023-05-11T03:26:13.809Z,13.80
2023-05-11T03:28:45.914Z,13.90
2023-05-11T03:31:14.486Z,13.80
2023-05-11T03:33:44.456Z,13.80
2023-05-11T03:36:16.085Z,13.70
2023-05-11T03:38:48.611Z,13.70
2023-05-11T03:41:18.955Z,13.70
2023-05-11T03:43:52.224Z,13.60
2023-05-11T03:46:23.793Z,13.50
2023-05-11T03:48:54.964Z,13.40
2023-05-11T03:51:24.407Z,13.40
2023-05-11T03:53:52.898Z,13.40
2023-05-11T03:56:21.636Z,13.50
2023-05-11T03:58:51.104Z,13.50
2023-05-11T04:01:20.166Z,13.50
2023-05-11T04:03:50.845Z,13.50
2023-05-11T04:06:21.537Z,13.50
2023-05-11T04:08:50.591Z,13.40
2023-05-11T04:11:19.335Z,13.40
2023-05-11T04:13:47.994Z,13.40
2023-05-11T04:16:16.594Z,13.40
2023-05-11T04:18:45.334Z,13.50
2023-05-11T04:21:14.111Z,13.50
2023-05-11T04:23:44.366Z,13.60
2023-05-11T04:26:12.990Z,13.60
2023-05-11T04:28:41.566Z,13.60
2023-05-11T04:31:10.568Z,13.70
2023-05-11T04:33:39.500Z,13.70
2023-05-11T04:36:10.012Z,13.70
2023-05-11T04:38:38.788Z,13.80
2023-05-11T04:41:10.104Z,13.70
2023-05-11T04:43:38.989Z,13.60
2023-05-11T04:46:07.782Z,13.60
2023-05-11T04:48:37.091Z,13.60
2023-05-11T04:51:06.970Z,13.60
2023-05-11T04:53:35.499Z,13.60
2023-05-11T04:56:04.365Z,13.60
2023-05-11T04:58:34.560Z,13.60
2023-05-11T05:01:03.441Z,13.60
2023-05-11T05:03:32.306Z,13.60
2023-05-11T05:06:01.130Z,13.70
2023-05-11T05:08:29.616Z,13.60
2023-05-11T05:10:58.109Z,13.60
2023-05-11T05:13:27.211Z,13.70
2023-05-11T05:15:57.729Z,13.70
2023-05-11T05:18:26.697Z,13.70
2023-05-11T05:20:55.268Z,13.70
2023-05-11T05:23:24.110Z,13.60
2023-05-11T05:25:52.707Z,13.70
2023-05-11T05:28:21.734Z,13.70
2023-05-11T05:30:50.449Z,13.60
2023-05-11T05:33:20.470Z,13.60
2023-05-11T05:35:49.039Z,13.60
2023-05-11T05:38:17.632Z,13.60
2023-05-11T05:40:46.559Z,13.60
2023-05-11T05:43:15.562Z,13.70
2023-05-11T05:45:44.297Z,13.70
2023-05-11T05:48:13.183Z,13.80
2023-05-11T05:50:43.357Z,13.80
2023-05-11T05:53:12.099Z,13.70
2023-05-11T05:55:40.768Z,13.60
2023-05-11T05:58:10.152Z,13.70
2023-05-11T06:00:38.997Z,13.70
2023-05-11T06:03:08.113Z,13.70
2023-05-11T06:05:36.930Z,13.70
2023-05-11T06:08:11.074Z,13.70
2023-05-11T06:10:41.045Z,13.80
2023-05-11T06:13:10.535Z,13.70
2023-05-11T06:15:45.005Z,13.80
2023-05-11T06:18:14.276Z,13.80
2023-05-11T06:20:44.512Z,13.80
2023-05-11T06:23:14.976Z,13.80
2023-05-11T06:25:43.874Z,13.80
2023-05-11T06:28:12.742Z,13.80
2023-05-11T06:30:41.619Z,13.80
2023-05-11T06:33:11.351Z,13.80
2023-05-11T06:35:40.298Z,13.80
2023-05-11T06:38:09.336Z,13.80
2023-05-11T06:40:39.807Z,13.80
2023-05-11T06:43:13.446Z,13.80
2023-05-11T06:45:42.564Z,13.70
2023-05-11T06:48:11.632Z,13.70
2023-05-11T06:50:40.969Z,13.70
2023-05-11T06:53:10.947Z,13.70
2023-05-11T06:55:41.585Z,13.70
2023-05-11T06:58:14.571Z,13.70
2023-05-11T07:00:43.793Z,13.80
2023-05-11T07:03:12.678Z,13.70
2023-05-11T07:05:43.354Z,13.70
2023-05-11T07:08:12.417Z,13.80
2023-05-11T07:10:45.926Z,13.80
2023-05-11T07:13:18.855Z,13.80
2023-05-11T07:15:47.793Z,13.80
2023-05-11T07:18:19.267Z,13.80
2023-05-11T07:20:51.817Z,13.80
2023-05-11T07:23:30.587Z,13.90
2023-05-11T07:26:09.577Z,14.00
2023-05-11T07:28:38.720Z,14.00
2023-05-11T07:31:07.722Z,13.90
2023-05-11T07:33:39.654Z,14.00
2023-05-11T07:36:09.787Z,14.10
2023-05-11T07:38:38.734Z,14.00
2023-05-11T07:41:11.509Z,14.00
2023-05-11T07:43:41.790Z,14.00
2023-05-11T07:46:12.644Z,14.10
2023-05-11T07:48:41.509Z,14.20
2023-05-11T07:51:10.374Z,14.10
2023-05-11T07:53:39.408Z,14.10
2023-05-11T07:56:13.977Z,14.20
2023-05-11T07:58:47.903Z,14.20
2023-05-11T08:01:19.731Z,14.20
2023-05-11T08:03:49.638Z,14.20
2023-05-11T08:06:18.908Z,14.30
2023-05-11T08:08:48.059Z,14.20
2023-05-11T08:11:19.603Z,14.10
2023-05-11T08:13:51.165Z,14.10
2023-05-11T08:16:20.212Z,14.10
2023-05-11T08:18:49.786Z,14.00
2023-05-11T08:21:19.075Z,14.10
2023-05-11T08:23:48.197Z,14.10
2023-05-11T08:26:23.920Z,14.20
2023-05-11T08:28:53.567Z,14.40
2023-05-11T08:31:22.934Z,14.40
2023-05-11T08:33:52.567Z,14.40
2023-05-11T08:36:22.557Z,14.60
2023-05-11T08:38:52.484Z,14.60
2023-05-11T08:41:27.792Z,14.60
2023-05-11T08:43:59.784Z,14.60
2023-05-11T08:46:32.304Z,14.70
2023-05-11T08:49:02.424Z,14.70
2023-05-11T08:51:33.041Z,14.90
2023-05-11T08:54:02.051Z,14.90
2023-05-11T08:56:43.989Z,14.80
2023-05-11T08:59:17.763Z,14.80
2023-05-11T09:01:56.227Z,14.90
2023-05-11T09:04:27.299Z,14.90
2023-05-11T09:06:58.390Z,15.00
2023-05-11T09:09:28.247Z,15.00
2023-05-11T09:12:00.012Z,14.90
2023-05-11T09:14:30.137Z,14.80
2023-05-11T09:16:59.218Z,14.70
2023-05-11T09:19:28.051Z,14.60
2023-05-11T09:21:58.139Z,14.50
2023-05-11T09:24:29.458Z,14.40
2023-05-11T09:27:10.694Z,14.40
2023-05-11T09:29:40.180Z,14.30
2023-05-11T09:32:10.569Z,14.30
2023-05-11T09:34:43.338Z,14.10
2023-05-11T09:37:19.612Z,14.00
2023-05-11T09:40:25.200Z,13.90
2023-05-11T09:42:45.789Z,14.00
2023-05-11T09:45:14.810Z,14.00
2023-05-11T09:47:44.396Z,14.10
2023-05-11T09:50:26.224Z,14.20
2023-05-11T09:52:55.514Z,14.40
2023-05-11T09:55:27.434Z,14.40
2023-05-11T09:58:00.626Z,14.40
2023-05-11T10:00:29.572Z,14.30
2023-05-11T10:03:17.144Z,14.30
2023-05-11T10:06:01.087Z,14.40
2023-05-11T10:08:34.564Z,14.50
2023-05-11T10:11:04.196Z,14.50
2023-05-11T10:13:38.146Z,14.50
2023-05-11T10:16:13.465Z,14.50
2023-05-11T10:18:56.637Z,14.50
2023-05-11T10:21:26.359Z,14.50
2023-05-11T10:23:58.141Z,14.40
2023-05-11T10:26:30.889Z,14.40
2023-05-11T10:29:03.046Z,14.40
2023-05-11T10:31:46.435Z,14.40
2023-05-11T10:34:19.882Z,14.30
2023-05-11T10:36:50.583Z,14.20
2023-05-11T10:39:46.118Z,14.20
2023-05-11T10:42:58.193Z,14.30
2023-05-11T10:50:19.757Z,14.30
2023-05-11T10:53:19.336Z,14.50
2023-05-11T10:56:18.162Z,14.70
2023-05-11T10:59:18.249Z,14.90
2023-05-11T11:01:52.422Z,14.80
2023-05-11T11:04:21.753Z,14.90
2023-05-11T11:07:07.336Z,15.00
2023-05-11T11:09:56.370Z,15.10
2023-05-11T11:12:27.324Z,15.10
2023-05-11T11:15:00.299Z,15.10
2023-05-11T11:17:35.020Z,15.00
2023-05-11T11:20:07.682Z,14.90
2023-05-11T11:22:50.387Z,14.90
2023-05-11T11:26:00.984Z,14.90
2023-05-11T11:28:30.158Z,14.90
2023-05-11T11:31:27.995Z,14.90
2023-05-11T11:34:01.590Z,14.80
2023-05-11T11:37:08.839Z,14.80
2023-05-11T11:39:50.571Z,14.80
2023-05-11T11:42:21.705Z,14.70
2023-05-11T11:44:50.660Z,14.60
2023-05-11T11:47:21.773Z,14.60
2023-05-11T11:49:54.781Z,14.70
2023-05-11T11:52:37.347Z,14.70
2023-05-11T11:55:06.914Z,14.90
2023-05-11T11:57:49.522Z,15.00
2023-05-11T12:00:22.886Z,15.10
2023-05-11T12:02:51.862Z,15.10
2023-05-11T12:05:23.468Z,15.20
2023-05-11T12:07:54.839Z,15.20
2023-05-11T12:10:26.255Z,15.10
2023-05-11T12:12:59.906Z,15.20
2023-05-11T12:15:33.300Z,15.00
2023-05-11T12:18:03.587Z,14.90
2023-05-11T12:20:34.941Z,14.90
2023-05-11T12:23:04.468Z,14.90
2023-05-11T12:25:33.376Z,14.80
2023-05-11T12:28:02.669Z,14.80
2023-05-11T12:30:33.342Z,14.90
2023-05-11T12:33:04.640Z,14.90
2023-05-11T12:35:35.815Z,14.70
2023-05-11T12:38:04.507Z,14.40
2023-05-11T12:40:33.860Z,14.20
2023-05-11T12:43:02.565Z,14.10
2023-05-11T12:45:31.686Z,14.10
2023-05-11T12:48:01.091Z,14.20
2023-05-11T12:50:30.427Z,14.20
2023-05-11T12:56:01.091Z,14.20
2023-05-11T12:58:38.952Z,14.50
2023-05-11T13:01:09.275Z,14.70
2023-05-11T13:03:38.887Z,14.80
2023-05-11T13:06:09.873Z,14.90
2023-05-11T13:08:40.195Z,15.00
2023-05-11T13:11:25.924Z,15.00
2023-05-11T13:13:58.346Z,14.90
2023-05-11T13:16:28.579Z,14.90
2023-05-11T13:19:02.139Z,15.00
2023-05-11T13:21:33.550Z,15.10
2023-05-11T13:24:07.140Z,15.10
2023-05-11T13:26:38.590Z,15.10
2023-05-11T13:29:11.300Z,15.00
2023-05-11T13:31:52.064Z,14.90
2023-05-11T13:34:21.742Z,14.70
2023-05-11T13:36:52.890Z,14.40
2023-05-11T13:42:12.186Z,14.20
2023-05-11T13:44:41.621Z,14.20
2023-05-11T13:47:13.712Z,14.30
2023-05-11T13:49:46.038Z,14.30
2023-05-11T13:52:15.479Z,14.50
2023-05-11T13:54:44.640Z,14.60
2023-05-11T13:57:19.895Z,14.70
2023-05-11T13:59:49.676Z,14.70
2023-05-11T14:02:21.006Z,14.80
2023-05-11T14:04:52.167Z,14.70
2023-05-11T14:07:23.954Z,14.60
2023-05-11T14:09:57.342Z,14.60
2023-05-11T14:12:30.314Z,14.70
2023-05-11T14:15:00.295Z,14.70
2023-05-11T14:17:33.208Z,14.70
2023-05-11T14:20:03.828Z,14.70
2023-05-11T14:22:32.981Z,14.80
2023-05-11T14:25:03.059Z,14.80
2023-05-11T14:27:34.323Z,14.70
2023-05-11T14:30:03.568Z,14.70
2023-05-11T14:32:32.813Z,14.70
2023-05-11T14:35:02.970Z,14.70
2023-05-11T14:37:31.778Z,14.60
2023-05-11T14:40:01.796Z,14.50
2023-05-11T14:42:31.188Z,14.50
2023-05-11T14:45:01.849Z,14.50
2023-05-11T14:47:31.316Z,14.60
2023-05-11T14:50:00.755Z,14.60
2023-05-11T14:52:31.587Z,14.60
2023-05-11T14:55:01.856Z,14.80
2023-05-11T14:57:31.032Z,14.80
2023-05-11T15:00:02.686Z,14.80
2023-05-11T15:02:32.134Z,14.90
2023-05-11T15:05:01.336Z,14.90
2023-05-11T15:07:30.951Z,14.90
2023-05-11T15:10:02.660Z,14.80
2023-05-11T15:12:33.787Z,14.90
2023-05-11T15:15:14.296Z,15.00
2023-05-11T15:17:42.844Z,15.10
2023-05-11T15:20:13.250Z,15.10
2023-05-11T15:22:42.554Z,15.10
2023-05-11T15:25:12.133Z,15.10
2023-05-11T15:27:41.864Z,15.00
2023-05-11T15:30:16.144Z,14.90
2023-05-11T15:35:58.451Z,14.90
2023-05-11T15:38:30.252Z,14.80
2023-05-11T15:41:16.722Z,14.80
2023-05-11T15:43:48.077Z,14.80
2023-05-11T15:46:26.085Z,14.80
2023-05-11T15:52:57.271Z,14.80
2023-05-11T15:58:47.727Z,14.80
2023-05-11T16:01:22.857Z,14.60
2023-05-11T16:04:02.461Z,14.80
2023-05-11T16:17:07.071Z,14.80
2023-05-11T16:42:25.941Z,14.50
2023-05-11T16:44:58.558Z,14.40
2023-05-11T16:47:32.902Z,14.40
2023-05-11T16:50:10.761Z,14.40
2023-05-11T16:52:43.352Z,14.40
2023-05-11T16:55:33.155Z,14.40
2023-05-11T17:11:29.762Z,14.50
2023-05-11T17:14:18.661Z,14.40
2023-05-11T17:17:06.251Z,14.40
2023-05-11T17:19:39.678Z,14.40
2023-05-11T17:25:23.682Z,14.30
2023-05-11T17:27:58.514Z,14.40
2023-05-11T17:30:48.532Z,14.40
2023-05-11T17:36:13.189Z,14.40
2023-05-11T17:41:42.119Z,14.50
2023-05-11T17:44:13.215Z,14.60
2023-05-11T17:46:44.182Z,14.60
2023-05-11T17:49:13.214Z,14.40
2023-05-11T17:51:42.662Z,14.40
2023-05-11T17:57:12.606Z,14.30
2023-05-11T17:59:45.296Z,14.20
2023-05-11T18:02:17.960Z,14.20
2023-05-11T18:04:48.559Z,14.10
2023-05-11T18:07:18.258Z,14.00
2023-05-11T18:09:47.513Z,14.00
2023-05-11T18:12:18.081Z,14.00
2023-05-11T18:14:50.072Z,13.80
2023-05-11T18:17:19.499Z,13.80
2023-05-11T18:19:49.126Z,13.80
2023-05-11T18:22:18.732Z,13.70
2023-05-11T18:24:47.982Z,13.70
2023-05-11T18:27:17.174Z,13.80
2023-05-11T18:30:04.916Z,13.90
2023-05-11T18:32:34.323Z,13.80
2023-05-11T18:35:04.109Z,13.70
2023-05-11T18:40:24.658Z,13.70
2023-05-11T18:42:56.458Z,13.70
2023-05-11T18:45:30.745Z,13.60
2023-05-11T18:48:00.747Z,13.60
2023-05-11T18:50:30.088Z,13.60
2023-05-11T18:53:00.340Z,13.60
2023-05-11T18:55:35.458Z,13.60
2023-05-11T18:58:10.734Z,13.70
2023-05-11T19:00:41.413Z,13.70
2023-05-11T19:03:13.669Z,13.70
2023-05-11T19:05:43.942Z,13.70
2023-05-11T19:08:13.147Z,13.70
2023-05-11T19:10:45.682Z,13.70
2023-05-11T19:13:14.610Z,13.70
2023-05-11T19:15:46.686Z,13.70
2023-05-11T19:18:17.911Z,13.80
2023-05-11T19:20:46.546Z,13.80
2023-05-11T19:23:17.662Z,13.70
2023-05-11T19:25:55.655Z,13.60
2023-05-11T19:28:25.218Z,13.60
2023-05-11T19:31:05.637Z,13.70
2023-05-11T19:33:36.396Z,13.70
2023-05-11T19:36:06.264Z,13.70
2023-05-11T19:38:36.691Z,13.60
2023-05-11T19:41:06.449Z,13.60
2023-05-11T19:43:36.715Z,13.60
2023-05-11T19:46:08.275Z,13.50
2023-05-11T19:48:40.478Z,13.50
2023-05-11T19:51:10.005Z,13.50
2023-05-11T19:53:44.153Z,13.50
2023-05-11T19:56:14.878Z,13.50
2023-05-11T19:59:33.172Z,13.50
2023-05-11T20:02:09.556Z,13.50
2023-05-11T20:09:06.744Z,13.50
2023-05-11T20:18:17.133Z,13.20
2023-05-11T20:20:47.877Z,13.20
2023-05-11T20:23:23.820Z,13.30
2023-05-11T20:28:47.091Z,13.30
2023-05-11T20:31:16.415Z,13.30
2023-05-11T20:36:29.904Z,13.20
2023-05-11T20:39:01.914Z,13.20
2023-05-11T20:41:31.373Z,13.20
2023-05-11T20:44:05.873Z,13.20
2023-05-11T20:46:35.177Z,13.20
2023-05-11T20:49:06.354Z,13.20
2023-05-11T20:51:37.641Z,13.20
2023-05-11T20:54:09.945Z,13.20
2023-05-11T20:56:44.333Z,13.00
2023-05-11T21:01:48.421Z,12.90
2023-05-11T21:04:19.102Z,12.80
2023-05-11T21:06:48.897Z,12.70
2023-05-11T21:09:19.051Z,12.70
2023-05-11T21:11:49.156Z,12.60
2023-05-11T21:14:18.399Z,12.60
2023-05-11T21:16:51.755Z,12.60
2023-05-11T21:19:22.168Z,12.60
2023-05-11T21:21:50.785Z,12.60
2023-05-11T21:24:20.413Z,12.60
2023-05-11T21:26:49.860Z,12.60
2023-05-11T21:29:18.575Z,12.60
2023-05-11T21:31:48.053Z,12.60
2023-05-11T21:34:17.428Z,12.60
2023-05-11T21:36:48.087Z,12.60
2023-05-11T21:39:17.226Z,12.70
2023-05-11T21:41:46.251Z,12.70
2023-05-11T21:44:15.743Z,12.80
2023-05-11T21:46:47.048Z,12.80
2023-05-11T21:49:16.172Z,12.80
2023-05-11T21:51:55.212Z,12.80
2023-05-11T21:54:24.195Z,12.70
2023-05-11T21:56:54.771Z,12.70
2023-05-11T21:59:28.328Z,12.50
2023-05-11T22:02:00.804Z,12.30
2023-05-11T22:04:30.586Z,12.30
2023-05-11T22:07:01.593Z,12.30
2023-05-11T22:09:33.559Z,12.40
2023-05-11T22:12:05.691Z,12.50
2023-05-11T22:14:34.572Z,12.50
2023-05-11T22:17:07.870Z,12.50
2023-05-11T22:19:37.702Z,12.50
2023-05-11T22:22:10.617Z,12.50
2023-05-11T22:24:40.242Z,12.50
2023-05-11T22:27:15.713Z,12.40
2023-05-11T22:29:52.398Z,12.30
2023-05-11T22:32:21.881Z,12.30
2023-05-11T22:34:59.204Z,12.40
2023-05-11T22:37:30.640Z,12.40
2023-05-11T22:39:59.876Z,12.40
2023-05-11T22:42:31.743Z,12.40
2023-05-11T22:45:04.017Z,12.30
2023-05-11T22:47:32.782Z,12.30
2023-05-11T22:50:03.471Z,12.30
2023-05-11T22:52:35.736Z,12.30
2023-05-11T22:55:05.797Z,12.30
2023-05-11T22:57:35.623Z,12.20
2023-05-11T23:00:05.657Z,12.30
2023-05-11T23:02:36.161Z,12.40
2023-05-11T23:05:06.296Z,12.20
2023-05-11T23:07:37.186Z,12.10
2023-05-11T23:10:06.538Z,12.00
2023-05-11T23:12:36.274Z,11.80
2023-05-11T23:15:05.684Z,11.90
2023-05-11T23:17:35.027Z,12.00
2023-05-11T23:20:04.581Z,12.20
2023-05-11T23:22:33.249Z,12.20
2023-05-11T23:25:05.762Z,12.20
2023-05-11T23:27:34.560Z,12.10
2023-05-11T23:30:04.324Z,12.10
2023-05-11T23:32:35.610Z,12.20
2023-05-11T23:35:04.445Z,12.10
2023-05-11T23:37:34.294Z,12.10
2023-05-11T23:40:05.648Z,12.10
2023-05-11T23:42:35.457Z,12.10
2023-05-11T23:45:04.938Z,12.20
2023-05-11T23:47:33.898Z,12.30
2023-05-11T23:50:02.982Z,12.30
2023-05-11T23:52:31.889Z,12.40
2023-05-11T23:55:00.475Z,12.50
2023-05-11T23:57:30.949Z,12.50
2023-05-11T23:59:59.688Z,12.50
